sensor_id;sensor_type;location;lat;lon;timestamp;P1;durP1;ratioP1;P2;durP2;ratioP2
71821;SDS011;64096;52.548;13.406;2023-05-07T06:02:31;8.43;;;5.82;;
71821;SDS011;64096;52.548;13.406;2023-05-07T06:04:57;7.65;;;5.43;;
71821;SDS011;64096;52.548;13.406;2023-05-07T06:07:23;6.70;;;5.18;;
71821;SDS011;64096;52.548;13.406;2023-05-07T06:09:49;7.40;;;5.05;;
71821;SDS011;64096;52.548;13.406;2023-05-07T06:12:17;7.95;;;5.35;;
71821;SDS011;64096;52.548;13.406;2023-05-07T06:14:43;8.52;;;5.55;;
71821;SDS011;64096;52.548;13.406;2023-05-07T06:17:09;7.47;;;5.45;;
71821;SDS011;64096;52.548;13.406;2023-05-07T06:19:35;6.93;;;5.38;;
71821;SDS011;64096;52.548;13.406;2023-05-07T06:22:01;7.35;;;5.35;;
71821;SDS011;64096;52.548;13.406;2023-05-07T06:24:27;7.60;;;5.25;;
71821;SDS011;64096;52.548;13.406;2023-05-07T06:26:53;7.82;;;5.38;;
71821;SDS011;64096;52.548;13.406;2023-05-07T06:29:20;6.78;;;5.65;;
71821;SDS011;64096;52.548;13.406;2023-05-07T06:31:46;8.50;;;5.30;;
71821;SDS011;64096;52.548;13.406;2023-05-07T06:34:12;6.88;;;5.13;;
71821;SDS011;64096;52.548;13.406;2023-05-07T06:36:39;9.13;;;5.45;;
71821;SDS011;64096;52.548;13.406;2023-05-07T06:39:06;8.73;;;5.07;;
71821;SDS011;64096;52.548;13.406;2023-05-07T06:41:32;7.10;;;5.60;;
71821;SDS011;64096;52.548;13.406;2023-05-07T06:43:59;6.78;;;5.07;;
71821;SDS011;64096;52.548;13.406;2023-05-07T06:46:25;7.53;;;5.13;;
71821;SDS011;64096;52.548;13.406;2023-05-07T06:48:51;7.20;;;4.93;;
71821;SDS011;64096;52.548;13.406;2023-05-07T06:51:17;7.47;;;5.22;;
71821;SDS011;64096;52.548;13.406;2023-05-07T06:53:43;6.65;;;4.50;;
71821;SDS011;64096;52.548;13.406;2023-05-07T06:56:09;6.47;;;4.43;;
71821;SDS011;64096;52.548;13.406;2023-05-07T06:58:35;8.27;;;5.03;;
71821;SDS011;64096;52.548;13.406;2023-05-07T07:01:01;8.00;;;4.78;;
71821;SDS011;64096;52.548;13.406;2023-05-07T07:03:27;6.10;;;4.30;;
71821;SDS011;64096;52.548;13.406;2023-05-07T07:05:54;6.47;;;4.45;;
71821;SDS011;64096;52.548;13.406;2023-05-07T07:08:21;5.90;;;3.95;;
71821;SDS011;64096;52.548;13.406;2023-05-07T07:10:47;6.03;;;4.25;;
71821;SDS011;64096;52.548;13.406;2023-05-07T07:13:14;5.65;;;4.22;;
71821;SDS011;64096;52.548;13.406;2023-05-07T07:15:40;5.20;;;3.60;;
71821;SDS011;64096;52.548;13.406;2023-05-07T07:18:06;5.32;;;3.60;;
71821;SDS011;64096;52.548;13.406;2023-05-07T07:20:32;5.40;;;3.78;;
71821;SDS011;64096;52.548;13.406;2023-05-07T07:22:58;4.78;;;3.58;;
71821;SDS011;64096;52.548;13.406;2023-05-07T07:25:24;5.82;;;3.40;;
71821;SDS011;64096;52.548;13.406;2023-05-07T07:27:50;5.82;;;4.03;;
71821;SDS011;64096;52.548;13.406;2023-05-07T07:30:16;5.38;;;3.55;;
71821;SDS011;64096;52.548;13.406;2023-05-07T07:32:43;4.88;;;3.17;;
71821;SDS011;64096;52.548;13.406;2023-05-07T07:35:09;5.40;;;3.63;;
71821;SDS011;64096;52.548;13.406;2023-05-07T07:37:35;5.20;;;3.28;;
71821;SDS011;64096;52.548;13.406;2023-05-07T07:40:02;4.47;;;3.20;;
71821;SDS011;64096;52.548;13.406;2023-05-07T07:42:28;6.47;;;3.95;;
71821;SDS011;64096;52.548;13.406;2023-05-07T07:44:54;6.35;;;3.97;;
71821;SDS011;64096;52.548;13.406;2023-05-07T07:47:22;6.25;;;3.42;;
71821;SDS011;64096;52.548;13.406;2023-05-07T07:49:48;5.25;;;3.20;;
71821;SDS011;64096;52.548;13.406;2023-05-07T07:52:15;4.85;;;3.00;;
71821;SDS011;64096;52.548;13.406;2023-05-07T07:54:41;4.38;;;2.67;;
71821;SDS011;64096;52.548;13.406;2023-05-07T07:57:07;4.85;;;2.80;;
71821;SDS011;64096;52.548;13.406;2023-05-07T07:59:34;4.22;;;2.53;;
71821;SDS011;64096;52.548;13.406;2023-05-07T08:02:00;5.22;;;2.78;;
71821;SDS011;64096;52.548;13.406;2023-05-07T08:04:26;4.95;;;2.88;;
71821;SDS011;64096;52.548;13.406;2023-05-07T08:06:52;4.57;;;2.70;;
71821;SDS011;64096;52.548;13.406;2023-05-07T08:09:19;5.50;;;2.88;;
71821;SDS011;64096;52.548;13.406;2023-05-07T08:11:45;3.55;;;2.28;;
71821;SDS011;64096;52.548;13.406;2023-05-07T08:14:11;4.45;;;2.65;;
71821;SDS011;64096;52.548;13.406;2023-05-07T08:16:37;4.40;;;2.35;;
71821;SDS011;64096;52.548;13.406;2023-05-07T08:19:03;4.40;;;2.50;;
71821;SDS011;64096;52.548;13.406;2023-05-07T08:21:29;4.25;;;2.40;;
71821;SDS011;64096;52.548;13.406;2023-05-07T08:23:55;3.58;;;2.35;;
71821;SDS011;64096;52.548;13.406;2023-05-07T08:26:21;4.40;;;2.22;;
71821;SDS011;64096;52.548;13.406;2023-05-07T08:28:47;4.05;;;2.40;;
71821;SDS011;64096;52.548;13.406;2023-05-07T08:31:14;4.80;;;2.42;;
71821;SDS011;64096;52.548;13.406;2023-05-07T08:33:40;3.50;;;2.28;;
71821;SDS011;64096;52.548;13.406;2023-05-07T08:36:06;3.38;;;2.22;;
71821;SDS011;64096;52.548;13.406;2023-05-07T08:38:32;4.60;;;2.70;;
71821;SDS011;64096;52.548;13.406;2023-05-07T08:40:58;4.28;;;2.47;;
71821;SDS011;64096;52.548;13.406;2023-05-07T08:43:26;4.22;;;2.33;;
71821;SDS011;64096;52.548;13.406;2023-05-07T08:45:53;3.63;;;2.20;;
71821;SDS011;64096;52.548;13.406;2023-05-07T08:48:25;5.20;;;2.35;;
71821;SDS011;64096;52.548;13.406;2023-05-07T08:50:51;4.07;;;2.53;;
71821;SDS011;64096;52.548;13.406;2023-05-07T08:53:17;4.00;;;1.90;;
71821;SDS011;64096;52.548;13.406;2023-05-07T08:55:44;3.90;;;2.08;;
71821;SDS011;64096;52.548;13.406;2023-05-07T08:58:10;4.38;;;2.53;;
71821;SDS011;64096;52.548;13.406;2023-05-07T09:00:36;4.07;;;2.30;;
71821;SDS011;64096;52.548;13.406;2023-05-07T09:03:03;4.82;;;2.50;;
71821;SDS011;64096;52.548;13.406;2023-05-07T09:05:29;3.78;;;1.80;;
71821;SDS011;64096;52.548;13.406;2023-05-07T09:07:58;3.55;;;1.90;;
71821;SDS011;64096;52.548;13.406;2023-05-07T09:10:24;3.85;;;2.00;;
71821;SDS011;64096;52.548;13.406;2023-05-07T09:12:51;3.60;;;2.10;;
71821;SDS011;64096;52.548;13.406;2023-05-07T09:15:17;4.40;;;2.00;;
71821;SDS011;64096;52.548;13.406;2023-05-07T09:17:44;3.97;;;2.20;;
71821;SDS011;64096;52.548;13.406;2023-05-07T09:20:10;3.40;;;2.17;;
71821;SDS011;64096;52.548;13.406;2023-05-07T09:22:36;3.42;;;1.95;;
71821;SDS011;64096;52.548;13.406;2023-05-07T09:25:02;2.45;;;1.55;;
71821;SDS011;64096;52.548;13.406;2023-05-07T09:27:29;3.88;;;1.80;;
71821;SDS011;64096;52.548;13.406;2023-05-07T09:29:56;4.32;;;2.05;;
71821;SDS011;64096;52.548;13.406;2023-05-07T09:32:22;4.10;;;2.17;;
71821;SDS011;64096;52.548;13.406;2023-05-07T09:34:48;4.13;;;2.10;;
71821;SDS011;64096;52.548;13.406;2023-05-07T09:37:14;3.70;;;2.00;;
71821;SDS011;64096;52.548;13.406;2023-05-07T09:39:45;3.35;;;1.95;;
71821;SDS011;64096;52.548;13.406;2023-05-07T09:42:12;3.17;;;2.10;;
71821;SDS011;64096;52.548;13.406;2023-05-07T09:44:40;3.75;;;2.10;;
71821;SDS011;64096;52.548;13.406;2023-05-07T09:47:06;4.10;;;2.15;;
71821;SDS011;64096;52.548;13.406;2023-05-07T09:49:36;3.72;;;2.10;;
71821;SDS011;64096;52.548;13.406;2023-05-07T09:52:03;3.15;;;1.80;;
71821;SDS011;64096;52.548;13.406;2023-05-07T09:54:31;3.53;;;2.00;;
71821;SDS011;64096;52.548;13.406;2023-05-07T09:56:58;3.17;;;1.70;;
71821;SDS011;64096;52.548;13.406;2023-05-07T09:59:27;3.25;;;1.70;;
71821;SDS011;64096;52.548;13.406;2023-05-07T10:01:54;2.42;;;1.58;;
71821;SDS011;64096;52.548;13.406;2023-05-07T10:04:23;3.42;;;1.55;;
71821;SDS011;64096;52.548;13.406;2023-05-07T10:06:49;2.70;;;1.55;;
71821;SDS011;64096;52.548;13.406;2023-05-07T10:09:15;2.40;;;1.42;;
71821;SDS011;64096;52.548;13.406;2023-05-07T10:11:42;2.05;;;1.33;;
71821;SDS011;64096;52.548;13.406;2023-05-07T10:14:10;2.78;;;1.48;;
71821;SDS011;64096;52.548;13.406;2023-05-07T10:16:36;3.10;;;1.45;;
71821;SDS011;64096;52.548;13.406;2023-05-07T10:19:03;2.33;;;1.33;;
71821;SDS011;64096;52.548;13.406;2023-05-07T10:21:30;4.00;;;1.50;;
71821;SDS011;64096;52.548;13.406;2023-05-07T10:23:59;2.00;;;1.02;;
71821;SDS011;64096;52.548;13.406;2023-05-07T10:26:31;1.88;;;1.30;;
71821;SDS011;64096;52.548;13.406;2023-05-07T10:28:59;2.28;;;1.30;;
71821;SDS011;64096;52.548;13.406;2023-05-07T10:34:07;2.38;;;1.50;;
71821;SDS011;64096;52.548;13.406;2023-05-07T10:36:36;2.75;;;1.50;;
71821;SDS011;64096;52.548;13.406;2023-05-07T10:39:02;2.30;;;1.35;;
71821;SDS011;64096;52.548;13.406;2023-05-07T10:41:28;2.05;;;1.20;;
71821;SDS011;64096;52.548;13.406;2023-05-07T10:43:55;3.35;;;1.60;;
71821;SDS011;64096;52.548;13.406;2023-05-07T10:46:21;3.20;;;1.20;;
71821;SDS011;64096;52.548;13.406;2023-05-07T10:51:31;2.95;;;1.45;;
71821;SDS011;64096;52.548;13.406;2023-05-07T10:56:36;2.85;;;1.40;;
71821;SDS011;64096;52.548;13.406;2023-05-07T11:01:59;2.35;;;1.50;;
71821;SDS011;64096;52.548;13.406;2023-05-07T11:04:27;3.40;;;1.58;;
71821;SDS011;64096;52.548;13.406;2023-05-07T11:12:51;2.60;;;1.30;;
71821;SDS011;64096;52.548;13.406;2023-05-07T11:15:10;2.45;;;1.17;;
71821;SDS011;64096;52.548;13.406;2023-05-07T11:17:56;2.72;;;1.33;;
71821;SDS011;64096;52.548;13.406;2023-05-07T11:23:08;2.55;;;1.70;;
71821;SDS011;64096;52.548;13.406;2023-05-07T11:25:34;2.60;;;1.60;;
71821;SDS011;64096;52.548;13.406;2023-05-07T11:28:04;3.03;;;1.50;;
71821;SDS011;64096;52.548;13.406;2023-05-07T11:30:30;3.33;;;1.48;;
71821;SDS011;64096;52.548;13.406;2023-05-07T11:32:57;2.65;;;1.58;;
71821;SDS011;64096;52.548;13.406;2023-05-07T11:35:23;2.13;;;1.30;;
71821;SDS011;64096;52.548;13.406;2023-05-07T11:37:49;2.55;;;1.40;;
71821;SDS011;64096;52.548;13.406;2023-05-07T11:40:16;3.40;;;1.50;;
71821;SDS011;64096;52.548;13.406;2023-05-07T11:42:42;2.65;;;1.77;;
71821;SDS011;64096;52.548;13.406;2023-05-07T11:45:08;2.25;;;1.30;;
71821;SDS011;64096;52.548;13.406;2023-05-07T11:47:35;2.70;;;1.20;;
71821;SDS011;64096;52.548;13.406;2023-05-07T11:50:04;3.28;;;1.40;;
71821;SDS011;64096;52.548;13.406;2023-05-07T11:52:31;3.83;;;1.77;;
71821;SDS011;64096;52.548;13.406;2023-05-07T11:54:58;2.85;;;1.30;;
71821;SDS011;64096;52.548;13.406;2023-05-07T11:57:25;3.83;;;1.52;;
71821;SDS011;64096;52.548;13.406;2023-05-07T11:59:55;2.08;;;1.27;;
71821;SDS011;64096;52.548;13.406;2023-05-07T12:02:21;2.58;;;1.30;;
71821;SDS011;64096;52.548;13.406;2023-05-07T12:04:49;1.98;;;1.10;;
71821;SDS011;64096;52.548;13.406;2023-05-07T12:07:15;2.72;;;1.40;;
71821;SDS011;64096;52.548;13.406;2023-05-07T12:09:43;2.72;;;1.27;;
71821;SDS011;64096;52.548;13.406;2023-05-07T12:12:09;2.60;;;1.33;;
71821;SDS011;64096;52.548;13.406;2023-05-07T12:14:39;3.35;;;1.60;;
71821;SDS011;64096;52.548;13.406;2023-05-07T12:17:05;2.03;;;1.40;;
71821;SDS011;64096;52.548;13.406;2023-05-07T12:19:33;5.57;;;1.35;;
71821;SDS011;64096;52.548;13.406;2023-05-07T12:22:04;2.60;;;1.30;;
71821;SDS011;64096;52.548;13.406;2023-05-07T12:24:46;3.28;;;1.23;;
71821;SDS011;64096;52.548;13.406;2023-05-07T12:27:16;2.75;;;1.50;;
71821;SDS011;64096;52.548;13.406;2023-05-07T12:29:49;4.10;;;1.40;;
71821;SDS011;64096;52.548;13.406;2023-05-07T12:32:16;5.47;;;2.92;;
71821;SDS011;64096;52.548;13.406;2023-05-07T12:34:42;2.38;;;1.48;;
71821;SDS011;64096;52.548;13.406;2023-05-07T12:37:08;1.88;;;1.20;;
71821;SDS011;64096;52.548;13.406;2023-05-07T12:39:35;2.65;;;1.50;;
71821;SDS011;64096;52.548;13.406;2023-05-07T12:42:01;2.58;;;1.30;;
71821;SDS011;64096;52.548;13.406;2023-05-07T12:44:31;2.92;;;1.40;;
71821;SDS011;64096;52.548;13.406;2023-05-07T12:46:57;2.88;;;1.58;;
71821;SDS011;64096;52.548;13.406;2023-05-07T12:49:23;3.67;;;1.20;;
71821;SDS011;64096;52.548;13.406;2023-05-07T12:51:50;2.22;;;1.30;;
71821;SDS011;64096;52.548;13.406;2023-05-07T12:54:29;2.22;;;1.20;;
71821;SDS011;64096;52.548;13.406;2023-05-07T12:57:04;2.53;;;1.20;;
71821;SDS011;64096;52.548;13.406;2023-05-07T12:59:40;2.75;;;1.20;;
71821;SDS011;64096;52.548;13.406;2023-05-07T13:02:07;1.73;;;1.15;;
71821;SDS011;64096;52.548;13.406;2023-05-07T13:04:33;2.28;;;1.30;;
71821;SDS011;64096;52.548;13.406;2023-05-07T13:06:59;2.85;;;1.30;;
71821;SDS011;64096;52.548;13.406;2023-05-07T13:09:26;2.95;;;1.40;;
71821;SDS011;64096;52.548;13.406;2023-05-07T13:11:54;2.50;;;1.48;;
71821;SDS011;64096;52.548;13.406;2023-05-07T13:14:20;2.78;;;1.38;;
71821;SDS011;64096;52.548;13.406;2023-05-07T13:16:46;2.90;;;1.30;;
71821;SDS011;64096;52.548;13.406;2023-05-07T13:19:13;2.83;;;1.33;;
71821;SDS011;64096;52.548;13.406;2023-05-07T13:21:39;2.80;;;1.35;;
71821;SDS011;64096;52.548;13.406;2023-05-07T13:24:05;2.95;;;1.40;;
71821;SDS011;64096;52.548;13.406;2023-05-07T13:26:31;2.63;;;1.30;;
71821;SDS011;64096;52.548;13.406;2023-05-07T13:28:57;3.45;;;1.63;;
71821;SDS011;64096;52.548;13.406;2023-05-07T13:31:24;2.10;;;1.20;;
71821;SDS011;64096;52.548;13.406;2023-05-07T13:33:50;3.33;;;1.33;;
71821;SDS011;64096;52.548;13.406;2023-05-07T13:36:17;2.15;;;1.38;;
71821;SDS011;64096;52.548;13.406;2023-05-07T13:38:43;3.55;;;1.35;;
71821;SDS011;64096;52.548;13.406;2023-05-07T13:41:09;4.20;;;1.70;;
71821;SDS011;64096;52.548;13.406;2023-05-07T13:43:37;2.33;;;1.40;;
71821;SDS011;64096;52.548;13.406;2023-05-07T13:46:03;2.90;;;1.33;;
71821;SDS011;64096;52.548;13.406;2023-05-07T13:48:29;2.17;;;1.23;;
71821;SDS011;64096;52.548;13.406;2023-05-07T13:50:56;5.85;;;1.80;;
71821;SDS011;64096;52.548;13.406;2023-05-07T13:53:22;4.43;;;1.27;;
71821;SDS011;64096;52.548;13.406;2023-05-07T13:55:48;2.47;;;1.20;;
71821;SDS011;64096;52.548;13.406;2023-05-07T13:58:14;2.20;;;1.00;;
